Time;durP1;ratioP1;P1;durP2;ratioP2;P2;SDS_P1;SDS_P2;PMS_P1;PMS_P2;Temp;Humidity;BMP_temperature;BMP_pressure;BME280_temperature;BME280_humidity;BME280_pressure;Samples;Min_cycle;Max_cycle;Signal;HPM_P1;HPM_P2
2024/02/14 00:00:04;;;;;;;9.20;6.90;;;;;;;4.58;100.00;92734.91;5071354;28;20836;-71
2024/02/14 00:02:31;;;;;;;8.05;6.28;;;;;;;4.37;100.00;92743.34;5073254;28;20040;-71
2024/02/14 00:04:59;;;;;;;7.85;6.07;;;;;;;4.46;100.00;92737.19;5073054;28;20520;-71
2024/02/14 00:07:27;;;;;;;9.55;6.50;;;;;;;4.57;100.00;92745.28;5072022;28;20230;-72
2024/02/14 00:09:54;;;;;;;8.15;6.30;;;;;;;4.60;100.00;92753.31;5082585;28;20056;-71
2024/02/14 00:12:23;;;;;;;8.63;6.50;;;;;;;4.56;100.00;92754.66;5074995;28;20140;-71
2024/02/14 00:14:49;;;;;;;10.27;7.18;;;;;;;4.60;100.00;92755.06;5072772;28;20052;-71
2024/02/14 00:17:17;;;;;;;8.77;6.75;;;;;;;4.53;100.00;92747.38;5071537;28;20139;-72
2024/02/14 00:19:43;;;;;;;8.00;6.65;;;;;;;4.59;100.00;92756.84;5072912;28;20048;-71
2024/02/14 00:22:10;;;;;;;8.23;6.43;;;;;;;4.45;100.00;92748.31;5072740;28;20058;-71
2024/02/14 00:24:39;;;;;;;8.23;6.68;;;;;;;4.54;100.00;92759.94;5077477;28;20558;-71
2024/02/14 00:27:06;;;;;;;10.35;7.35;;;;;;;4.54;100.00;92759.94;5073336;28;20373;-72
2024/02/14 00:29:33;;;;;;;8.98;7.30;;;;;;;4.57;100.00;92747.81;5070030;28;20048;-72
2024/02/14 00:32:00;;;;;;;8.95;7.13;;;;;;;4.58;100.00;92760.34;5068725;28;20052;-72
2024/02/14 00:34:27;;;;;;;10.43;8.05;;;;;;;4.70;100.00;92767.47;5072685;28;20054;-72
2024/02/14 00:36:54;;;;;;;9.52;7.65;;;;;;;4.81;100.00;92767.75;5072406;28;20063;-72
2024/02/14 00:39:21;;;;;;;9.18;7.32;;;;;;;4.62;100.00;92766.63;5069478;28;20491;-71
2024/02/14 00:41:52;;;;;;;10.02;6.90;;;;;;;4.65;100.00;92773.91;5075760;28;20065;-72
2024/02/14 00:44:19;;;;;;;9.57;7.40;;;;;;;4.69;100.00;92771.78;5073659;28;20049;-72
2024/02/14 00:46:46;;;;;;;10.63;7.22;;;;;;;4.64;100.00;92767.22;5072782;28;20048;-72
2024/02/14 00:49:13;;;;;;;9.77;7.32;;;;;;;4.65;100.00;92766.28;5075465;28;20049;-72
2024/02/14 00:51:40;;;;;;;8.25;6.78;;;;;;;4.59;100.00;92769.56;5071586;28;20783;-72
2024/02/14 00:54:08;;;;;;;9.25;7.28;;;;;;;4.34;100.00;92756.41;5068776;28;20044;-71
2024/02/14 00:56:34;;;;;;;10.13;7.65;;;;;;;4.56;100.00;92762.28;5069186;28;20059;-72
2024/02/14 00:59:03;;;;;;;10.32;7.47;;;;;;;4.61;100.00;92769.38;5070063;28;20037;-72
2024/02/14 01:01:30;;;;;;;7.93;6.85;;;;;;;4.68;100.00;92760.03;5075110;28;20040;-72
2024/02/14 01:03:57;;;;;;;10.55;7.75;;;;;;;4.33;100.00;92717.50;5074403;28;20572;-72
2024/02/14 01:06:24;;;;;;;10.52;7.72;;;;;;;4.50;100.00;92766.34;5072976;28;20054;-72
2024/02/14 01:08:51;;;;;;;9.85;7.15;;;;;;;4.59;100.00;92761.13;5077293;28;20054;-72
2024/02/14 01:11:18;;;;;;;12.35;9.43;;;;;;;4.77;100.00;92771.63;5073495;28;20052;-72
2024/02/14 01:13:45;;;;;;;9.30;7.93;;;;;;;4.63;100.00;92775.84;5072060;28;20135;-72
2024/02/14 01:16:14;;;;;;;10.70;7.53;;;;;;;4.45;100.00;92750.06;5070192;28;20045;-72
2024/02/14 01:18:41;;;;;;;10.02;7.85;;;;;;;4.55;100.00;92770.91;5071786;28;20041;-72
2024/02/14 01:21:08;;;;;;;9.30;7.18;;;;;;;4.36;100.00;92757.81;5067477;28;20568;-72
2024/02/14 01:23:35;;;;;;;9.82;7.90;;;;;;;4.59;100.00;92767.03;5070503;28;20132;-72
2024/02/14 01:26:03;;;;;;;10.02;8.23;;;;;;;4.64;100.00;92777.41;5079659;28;20056;-72
2024/02/14 01:28:30;;;;;;;10.27;7.35;;;;;;;4.64;100.00;92779.19;5073701;28;20665;-72
2024/02/14 01:30:57;;;;;;;11.00;8.55;;;;;;;4.63;100.00;92780.94;5068054;28;20048;-73
2024/02/14 01:33:25;;;;;;;10.00;7.75;;;;;;;4.53;100.00;92780.44;5068846;28;20048;-72
2024/02/14 01:35:52;;;;;;;12.00;8.38;;;;;;;4.59;100.00;92781.50;5070064;28;20051;-72
2024/02/14 01:38:19;;;;;;;10.80;8.10;;;;;;;4.67;100.00;92777.06;5080567;28;20055;-72
2024/02/14 01:40:46;;;;;;;11.40;8.35;;;;;;;4.56;100.00;92762.28;5068783;28;20050;-72
2024/02/14 01:43:14;;;;;;;11.57;8.50;;;;;;;4.74;100.00;92783.94;5077936;28;20117;-72
2024/02/14 01:45:41;;;;;;;9.93;7.88;;;;;;;4.93;100.00;92777.44;5079769;28;20078;-71
2024/02/14 01:48:09;;;;;;;11.05;8.88;;;;;;;4.83;100.00;92782.84;5072663;28;20412;-71
2024/02/14 01:50:40;;;;;;;9.30;7.95;;;;;;;4.74;100.00;92782.19;5068820;28;20045;-71
2024/02/14 01:53:08;;;;;;;10.60;9.00;;;;;;;4.80;100.00;92781.47;5072274;28;20044;-71
2024/02/14 01:55:35;;;;;;;10.68;8.30;;;;;;;4.62;100.00;92784.44;5071245;28;20057;-72
2024/02/14 01:58:03;;;;;;;10.60;8.45;;;;;;;4.72;100.00;92775.72;5076240;28;20044;-72
2024/02/14 02:00:31;;;;;;;12.50;8.43;;;;;;;4.79;100.00;92784.19;5069912;28;20060;-72
2024/02/14 02:02:58;;;;;;;10.40;8.05;;;;;;;4.61;100.00;92787.16;5074101;28;20088;-72
2024/02/14 02:05:25;;;;;;;9.65;8.13;;;;;;;4.78;100.00;92780.06;5070909;28;20048;-72
2024/02/14 02:07:54;;;;;;;10.40;7.90;;;;;;;4.82;100.00;92789.69;5066510;28;20125;-72
2024/02/14 02:10:22;;;;;;;12.20;8.68;;;;;;;4.76;100.00;92787.88;5067994;28;20089;-72
2024/02/14 02:12:50;;;;;;;11.13;8.30;;;;;;;4.66;100.00;92785.66;5069978;28;20052;-72
2024/02/14 02:15:17;;;;;;;10.70;8.75;;;;;;;4.91;100.00;92797.19;5067452;28;20205;-72
2024/02/14 02:17:48;;;;;;;9.50;7.85;;;;;;;4.72;100.00;92791.00;5070311;28;20048;-72
2024/02/14 02:20:18;;;;;;;10.02;8.30;;;;;;;4.12;100.00;92729.25;5076124;28;20076;-72
2024/02/14 02:22:48;;;;;;;12.20;8.82;;;;;;;4.40;100.00;92763.34;5068104;28;20048;-72
2024/02/14 02:25:15;;;;;;;9.82;7.45;;;;;;;4.66;100.00;92797.59;5066847;28;20056;-72
2024/02/14 02:27:42;;;;;;;10.07;7.93;;;;;;;4.68;100.00;92795.66;5077490;28;20074;-72
2024/02/14 02:30:10;;;;;;;12.57;8.82;;;;;;;4.61;100.00;92795.59;5069375;28;20064;-72
2024/02/14 02:32:37;;;;;;;9.10;7.75;;;;;;;4.41;100.00;92803.06;5069204;28;20473;-71
2024/02/14 02:35:05;;;;;;;12.63;8.35;;;;;;;4.49;100.00;92805.47;5066471;28;20059;-72
2024/02/14 02:37:32;;;;;;;10.85;8.57;;;;;;;4.58;100.00;92808.66;5076471;28;20048;-71
2024/02/14 02:40:01;;;;;;;9.80;7.75;;;;;;;4.47;100.00;92804.06;5071393;28;20504;-71
2024/02/14 02:42:29;;;;;;;10.93;8.23;;;;;;;4.60;100.00;92811.84;5068309;28;20070;-72
2024/02/14 02:44:55;;;;;;;10.05;7.78;;;;;;;4.48;100.00;92821.69;5072880;28;20775;-71
2024/02/14 02:47:22;;;;;;;10.05;7.90;;;;;;;4.41;100.00;92821.63;5069908;28;20053;-71
2024/02/14 02:49:50;;;;;;;11.65;9.02;;;;;;;4.58;100.00;92821.38;5073802;28;20151;-72
2024/02/14 02:52:16;;;;;;;11.80;9.00;;;;;;;4.50;100.00;92818.97;5074488;28;20473;-72
2024/02/14 02:54:47;;;;;;;10.45;8.13;;;;;;;4.48;100.00;92826.00;5068539;28;20044;-72
2024/02/14 02:57:15;;;;;;;11.02;8.20;;;;;;;4.49;100.00;92825.03;5075315;28;20072;-72
2024/02/14 02:59:44;;;;;;;10.48;8.13;;;;;;;4.52;100.00;92827.22;5075277;28;20071;-72
2024/02/14 03:02:11;;;;;;;9.70;8.55;;;;;;;4.52;100.00;92828.00;5070032;28;20628;-71
2024/02/14 03:04:39;;;;;;;9.98;7.82;;;;;;;4.68;100.00;92839.69;5067963;28;20114;-72
2024/02/14 03:07:08;;;;;;;11.50;7.72;;;;;;;4.70;100.00;92831.06;5067846;28;20048;-71
2024/02/14 03:09:35;;;;;;;10.15;8.02;;;;;;;4.74;100.00;92839.94;5073727;28;20051;-71
2024/02/14 03:12:03;;;;;;;9.90;8.02;;;;;;;4.81;100.00;92833.94;5076525;28;20076;-72
2024/02/14 03:14:32;;;;;;;9.85;7.80;;;;;;;4.80;100.00;92845.09;5068898;28;20072;-71
2024/02/14 03:17:01;;;;;;;11.13;8.50;;;;;;;4.88;100.00;92851.00;5066693;28;20056;-72
2024/02/14 03:19:28;;;;;;;13.90;11.00;;;;;;;5.05;100.00;92842.13;5070040;28;20047;-72
2024/02/14 03:21:55;;;;;;;15.02;10.70;;;;;;;5.22;100.00;92839.31;5066459;28;20511;-73
2024/02/14 03:24:22;;;;;;;11.90;9.30;;;;;;;5.30;100.00;92851.91;5068675;28;20049;-72
2024/02/14 03:26:51;;;;;;;12.30;9.07;;;;;;;5.28;100.00;92865.81;5076964;28;20143;-72
2024/02/14 03:29:18;;;;;;;11.30;8.48;;;;;;;5.07;100.00;92860.56;5067126;28;20059;-72
2024/02/14 03:31:47;;;;;;;14.77;13.05;;;;;;;5.22;100.00;92864.78;5067930;28;20052;-72
2024/02/14 03:34:14;;;;;;;11.05;9.27;;;;;;;5.11;100.00;92865.28;5067331;28;20489;-72
2024/02/14 03:36:42;;;;;;;11.10;9.07;;;;;;;5.04;100.00;92860.94;5073369;28;20493;-72
2024/02/14 03:39:10;;;;;;;10.20;7.47;;;;;;;4.75;100.00;92865.19;5068287;28;20382;-72
2024/02/14 03:41:37;;;;;;;10.48;7.68;;;;;;;4.58;100.00;92859.53;5073280;28;20043;-71
2024/02/14 03:44:06;;;;;;;9.88;7.40;;;;;;;4.50;100.00;92870.63;5070820;28;20107;-71
2024/02/14 03:46:35;;;;;;;9.50;7.82;;;;;;;4.36;100.00;92862.06;5072289;28;20208;-71
2024/02/14 03:49:03;;;;;;;8.90;7.55;;;;;;;4.36;100.00;92861.31;5067117;28;20052;-72
2024/02/14 03:51:30;;;;;;;10.38;7.85;;;;;;;4.53;100.00;92870.28;5066494;28;20044;-71
2024/02/14 03:53:57;;;;;;;10.55;8.15;;;;;;;4.57;100.00;92867.38;5067720;28;20056;-72
2024/02/14 03:56:24;;;;;;;9.93;7.65;;;;;;;4.49;100.00;92871.59;5070583;28;20051;-72
2024/02/14 03:58:51;;;;;;;11.85;8.88;;;;;;;4.60;100.00;92872.88;5077111;28;20048;-71
2024/02/14 04:01:19;;;;;;;12.00;8.95;;;;;;;4.61;100.00;92871.13;5077153;28;20041;-72
2024/02/14 04:03:48;;;;;;;10.00;8.13;;;;;;;4.70;100.00;92881.97;5075981;28;20076;-72
2024/02/14 04:06:17;;;;;;;10.80;8.77;;;;;;;4.52;100.00;92878.88;5078756;28;20044;-71
2024/02/14 04:08:46;;;;;;;11.45;8.68;;;;;;;4.46;100.00;92879.59;5076434;28;20363;-71
2024/02/14 04:11:14;;;;;;;12.45;8.65;;;;;;;4.52;100.00;92876.34;5070864;28;20191;-71
2024/02/14 04:13:41;;;;;;;10.45;8.43;;;;;;;4.72;100.00;92878.28;5075985;28;20053;-71
2024/02/14 04:16:08;;;;;;;10.70;9.02;;;;;;;4.62;100.00;92878.56;5078753;28;20500;-71
2024/02/14 04:18:35;;;;;;;10.05;8.25;;;;;;;4.60;100.00;92882.28;5072921;28;20131;-71
2024/02/14 04:21:03;;;;;;;11.93;9.05;;;;;;;4.60;100.00;92879.72;5078240;28;20059;-71
2024/02/14 04:23:32;;;;;;;13.88;9.43;;;;;;;4.34;100.00;92886.91;5076139;28;20078;-71
2024/02/14 04:25:59;;;;;;;10.20;7.88;;;;;;;4.18;100.00;92890.44;5071105;28;20052;-71
2024/02/14 04:28:26;;;;;;;11.68;8.27;;;;;;;4.23;100.00;92890.72;5070642;28;20161;-72
2024/02/14 04:30:53;;;;;;;12.07;9.50;;;;;;;4.39;100.00;92891.44;5071013;28;20041;-72
2024/02/14 04:33:21;;;;;;;12.75;8.93;;;;;;;4.34;100.00;92891.19;5071482;28;20114;-72
2024/02/14 04:35:48;;;;;;;12.82;9.60;;;;;;;4.58;100.00;92891.84;5073714;28;20055;-72
2024/02/14 04:38:16;;;;;;;10.32;8.63;;;;;;;4.51;100.00;92895.13;5081594;28;20044;-72
2024/02/14 04:40:44;;;;;;;11.55;9.02;;;;;;;4.28;100.00;92857.91;5069604;28;20045;-72
2024/02/14 04:43:12;;;;;;;10.98;9.18;;;;;;;4.49;100.00;92899.56;5074283;28;20048;-72
2024/02/14 04:45:39;;;;;;;11.85;9.35;;;;;;;4.31;100.00;92905.06;5072930;28;20123;-72
2024/02/14 04:48:07;;;;;;;12.52;9.98;;;;;;;4.49;100.00;92901.34;5080572;28;20054;-72
2024/02/14 04:50:35;;;;;;;12.95;10.15;;;;;;;4.40;100.00;92898.13;5072738;28;20571;-72
2024/02/14 04:53:01;;;;;;;13.13;9.75;;;;;;;4.43;100.00;92905.38;5070740;28;20045;-72
2024/02/14 04:55:28;;;;;;;13.70;10.98;;;;;;;4.35;100.00;92903.72;5070770;28;20407;-72
2024/02/14 04:57:57;;;;;;;14.07;11.00;;;;;;;4.41;100.00;92910.63;5072822;28;20048;-72
2024/02/14 05:00:24;;;;;;;12.38;9.70;;;;;;;4.24;100.00;92907.53;5071460;28;20044;-72
2024/02/14 05:02:51;;;;;;;12.60;10.00;;;;;;;4.16;100.00;92919.56;5073114;28;20059;-72
2024/02/14 05:05:19;;;;;;;12.60;10.38;;;;;;;4.21;100.00;92925.66;5069821;28;20098;-72
2024/02/14 05:07:46;;;;;;;13.38;10.30;;;;;;;4.10;100.00;92919.28;5073134;28;20048;-72
2024/02/14 05:10:13;;;;;;;14.40;11.18;;;;;;;4.17;100.00;92923.66;5070701;28;20671;-72
2024/02/14 05:12:41;;;;;;;14.20;10.75;;;;;;;4.12;100.00;92917.34;5071366;28;20400;-72
2024/02/14 05:15:12;;;;;;;13.02;10.75;;;;;;;4.43;100.00;92937.66;5071827;28;20407;-72
2024/02/14 05:17:39;;;;;;;13.57;11.10;;;;;;;4.30;100.00;92931.44;5072222;28;20036;-72
2024/02/14 05:20:08;;;;;;;15.10;11.88;;;;;;;4.58;100.00;92930.78;5069304;28;20586;-72
2024/02/14 05:22:37;;;;;;;15.32;11.35;;;;;;;4.70;100.00;92940.47;5071014;28;20548;-72
2024/02/14 05:25:05;;;;;;;14.40;11.48;;;;;;;4.62;100.00;92941.38;5069443;28;20130;-72
2024/02/14 05:27:32;;;;;;;17.67;12.82;;;;;;;4.62;100.00;92947.25;5068831;28;20420;-71
2024/02/14 05:29:59;;;;;;;16.45;12.02;;;;;;;4.32;100.00;92954.97;5081081;28;20055;-71
2024/02/14 05:32:27;;;;;;;17.40;13.75;;;;;;;4.40;100.00;92961.69;5072293;28;20044;-72
2024/02/14 05:34:56;;;;;;;16.80;13.35;;;;;;;4.45;100.00;92954.34;5073241;28;20048;-72
2024/02/14 05:37:23;;;;;;;18.08;13.50;;;;;;;4.35;100.00;92957.13;5069644;28;20070;-72
2024/02/14 05:39:50;;;;;;;15.00;12.15;;;;;;;4.39;100.00;92957.56;5068406;28;20048;-72
2024/02/14 05:42:17;;;;;;;17.80;13.10;;;;;;;4.41;100.00;92966.59;5079565;28;20055;-72
2024/02/14 05:44:44;;;;;;;18.58;11.95;;;;;;;4.58;100.00;92963.84;5070808;28;20052;-72
2024/02/14 05:47:11;;;;;;;24.40;15.13;;;;;;;4.43;100.00;92965.66;5069115;28;20507;-72
2024/02/14 05:49:40;;;;;;;14.73;11.55;;;;;;;4.26;100.00;92970.94;5072327;28;20615;-72
2024/02/14 05:52:08;;;;;;;18.52;12.23;;;;;;;4.46;100.00;92978.78;5067801;28;20051;-72
2024/02/14 05:54:35;;;;;;;14.35;11.05;;;;;;;4.36;100.00;92984.13;5071602;28;20048;-72
2024/02/14 05:57:03;;;;;;;14.20;10.88;;;;;;;3.88;100.00;92964.94;5069558;28;20044;-72
2024/02/14 05:59:30;;;;;;;14.15;10.98;;;;;;;4.12;100.00;92975.03;5070972;28;20043;-72
2024/02/14 06:01:57;;;;;;;13.13;10.88;;;;;;;4.10;100.00;92990.47;5071554;28;20048;-72
2024/02/14 06:04:24;;;;;;;14.30;12.18;;;;;;;4.19;100.00;92980.19;5079718;28;20059;-72
2024/02/14 06:06:52;;;;;;;13.57;10.90;;;;;;;4.04;100.00;92995.44;5068243;28;20049;-73
2024/02/14 06:09:19;;;;;;;14.35;11.02;;;;;;;4.09;100.00;92990.63;5070074;28;20070;-72
2024/02/14 06:11:46;;;;;;;14.77;11.27;;;;;;;4.10;100.00;93007.47;5067720;28;20090;-72
2024/02/14 06:14:13;;;;;;;13.80;11.60;;;;;;;4.24;100.00;93013.50;5072707;28;20464;-72
2024/02/14 06:16:40;;;;;;;12.90;10.68;;;;;;;4.27;100.00;93018.25;5077749;28;20051;-72
2024/02/14 06:19:07;;;;;;;12.73;10.30;;;;;;;4.06;100.00;93019.75;5067447;28;20062;-72
2024/02/14 06:21:34;;;;;;;15.88;12.38;;;;;;;4.13;100.00;93019.84;5072281;28;20056;-72
2024/02/14 06:24:04;;;;;;;18.25;13.02;;;;;;;4.06;100.00;93032.44;5081805;28;20675;-72
2024/02/14 06:26:33;;;;;;;13.10;10.18;;;;;;;4.24;100.00;93021.16;5068725;28;20044;-72
2024/02/14 06:29:00;;;;;;;13.65;10.38;;;;;;;4.09;100.00;93039.72;5073618;28;20131;-72
2024/02/14 06:31:26;;;;;;;15.27;10.95;;;;;;;4.36;100.00;93029.91;5079453;28;20052;-72
2024/02/14 06:33:53;;;;;;;14.93;11.05;;;;;;;4.46;99.91;93034.75;5070074;28;20052;-72
2024/02/14 06:36:20;;;;;;;15.38;11.45;;;;;;;4.38;99.91;93037.38;5067403;28;20044;-72
2024/02/14 06:38:47;;;;;;;25.58;17.05;;;;;;;4.50;100.00;93030.09;5077505;28;20050;-72
2024/02/14 06:41:16;;;;;;;17.48;11.88;;;;;;;4.58;99.26;93037.63;5073357;28;20048;-72
2024/02/14 06:43:42;;;;;;;23.73;13.43;;;;;;;4.53;99.20;93042.44;5071412;28;20044;-72
2024/02/14 06:46:09;;;;;;;32.50;16.48;;;;;;;4.34;100.00;93051.38;5069362;28;20050;-72
2024/02/14 06:48:36;;;;;;;17.88;12.02;;;;;;;4.65;100.00;93047.88;5073168;28;20055;-72
2024/02/14 06:51:04;;;;;;;18.58;12.40;;;;;;;4.52;98.34;93043.41;5071637;28;20041;-72
2024/02/14 06:53:31;;;;;;;10.55;8.93;;;;;;;4.35;98.36;93033.41;5068072;28;20333;-72
2024/02/14 06:55:58;;;;;;;14.50;10.25;;;;;;;4.64;99.76;93054.72;5069993;28;20047;-72
2024/02/14 06:58:26;;;;;;;24.10;15.40;;;;;;;4.49;98.75;93053.97;5070553;28;20508;-72
2024/02/14 07:00:53;;;;;;;16.40;11.02;;;;;;;4.47;99.10;93061.75;5068792;28;20072;-72
2024/02/14 07:03:20;;;;;;;12.93;8.73;;;;;;;4.60;97.73;93065.44;5067581;28;20055;-72
2024/02/14 07:05:47;;;;;;;17.38;11.60;;;;;;;4.38;98.91;93066.13;5068666;28;20046;-72
2024/02/14 07:08:15;;;;;;;12.85;9.00;;;;;;;4.24;98.23;93062.63;5068279;28;20059;-72
2024/02/14 07:10:42;;;;;;;14.38;10.25;;;;;;;4.51;98.20;93069.81;5069058;28;20056;-72
2024/02/14 07:13:09;;;;;;;13.05;8.77;;;;;;;4.46;97.23;93075.44;5068457;28;20083;-72
2024/02/14 07:15:37;;;;;;;12.95;8.77;;;;;;;4.40;97.25;93066.75;5070420;28;20048;-72
2024/02/14 07:18:05;;;;;;;11.27;8.45;;;;;;;4.48;98.18;93083.69;5077741;28;20062;-72
2024/02/14 07:20:32;;;;;;;11.25;8.57;;;;;;;4.39;97.70;93085.53;5073652;28;20114;-72
2024/02/14 07:23:01;;;;;;;11.63;8.75;;;;;;;4.43;97.19;93085.94;5067247;28;20048;-72
2024/02/14 07:25:27;;;;;;;11.40;8.60;;;;;;;4.31;100.00;93084.81;5068205;28;20114;-72
2024/02/14 07:27:54;;;;;;;10.20;7.47;;;;;;;4.13;100.00;93091.00;5070295;28;20048;-72
2024/02/14 07:30:21;;;;;;;12.90;9.23;;;;;;;4.07;100.00;93089.94;5072843;28;20051;-72
2024/02/14 07:32:51;;;;;;;10.80;8.35;;;;;;;4.03;100.00;93096.31;5070318;28;20429;-72
2024/02/14 07:35:18;;;;;;;14.90;9.88;;;;;;;4.04;100.00;93099.66;5078545;28;20037;-72
2024/02/14 07:37:46;;;;;;;16.25;12.50;;;;;;;3.91;100.00;93095.97;5080479;28;20450;-72
2024/02/14 07:40:13;;;;;;;13.43;8.93;;;;;;;3.78;100.00;93083.81;5071441;28;20128;-72
2024/02/14 07:42:40;;;;;;;12.18;9.02;;;;;;;4.06;100.00;93095.19;5083475;28;20484;-72
2024/02/14 07:45:07;;;;;;;12.15;9.57;;;;;;;3.89;100.00;93100.41;5074574;28;20056;-72
2024/02/14 07:47:34;;;;;;;11.02;8.07;;;;;;;3.67;100.00;93104.56;5070491;28;20040;-72
2024/02/14 07:50:03;;;;;;;16.17;11.75;;;;;;;3.78;100.00;93099.06;5078707;28;20529;-72
2024/02/14 07:52:31;;;;;;;14.70;10.70;;;;;;;3.88;100.00;93102.19;5071302;28;20052;-72
2024/02/14 07:54:58;;;;;;;15.13;10.65;;;;;;;3.99;100.00;93116.22;5077579;28;20705;-72
2024/02/14 07:57:25;;;;;;;28.17;16.25;;;;;;;3.92;100.00;93097.53;5073226;28;20063;-72
2024/02/14 07:59:52;;;;;;;29.00;18.25;;;;;;;3.93;100.00;93108.50;5070540;28;20518;-72
2024/02/14 08:02:20;;;;;;;15.60;11.20;;;;;;;3.94;100.00;93108.31;5069930;28;20047;-72
2024/02/14 08:04:47;;;;;;;15.07;11.18;;;;;;;3.74;100.00;93106.25;5071659;28;20060;-72
2024/02/14 08:07:15;;;;;;;8.68;7.13;;;;;;;3.58;100.00;93114.78;5071009;28;20081;-71
2024/02/14 08:09:42;;;;;;;13.10;9.90;;;;;;;3.79;100.00;93115.88;5075871;28;20550;-72
2024/02/14 08:12:10;;;;;;;13.20;8.90;;;;;;;3.66;100.00;93116.44;5081792;28;20049;-72
2024/02/14 08:14:37;;;;;;;12.25;9.95;;;;;;;3.65;100.00;93121.72;5074772;28;20051;-72
2024/02/14 08:17:04;;;;;;;12.88;10.07;;;;;;;3.55;100.00;93101.59;5072445;28;20431;-72
2024/02/14 08:19:31;;;;;;;14.00;8.98;;;;;;;3.52;100.00;93120.50;5076080;28;20051;-71
2024/02/14 08:21:59;;;;;;;13.73;9.45;;;;;;;3.53;100.00;93134.00;5072254;28;20896;-72
2024/02/14 08:24:29;;;;;;;15.18;11.25;;;;;;;3.32;100.00;93108.25;5072380;28;20142;-71
2024/02/14 08:26:56;;;;;;;17.60;11.65;;;;;;;3.50;100.00;93137.69;5071412;28;20048;-71
2024/02/14 08:29:23;;;;;;;21.48;13.93;;;;;;;3.57;100.00;93110.63;5071160;28;20063;-72
2024/02/14 08:31:50;;;;;;;14.20;10.73;;;;;;;3.59;100.00;93146.03;5070647;28;20045;-72
2024/02/14 08:34:17;;;;;;;15.52;10.68;;;;;;;3.48;100.00;93145.44;5078250;28;20044;-72
2024/02/14 08:36:44;;;;;;;18.70;12.52;;;;;;;3.19;100.00;93118.94;5075191;28;20048;-72
2024/02/14 08:39:11;;;;;;;14.25;9.80;;;;;;;3.22;100.00;93148.28;5069785;28;20411;-72
2024/02/14 08:41:41;;;;;;;14.77;10.68;;;;;;;3.18;100.00;93147.84;5072030;28;20052;-72
2024/02/14 08:44:08;;;;;;;20.50;11.98;;;;;;;3.21;100.00;93146.72;5075732;28;20059;-72
2024/02/14 08:46:35;;;;;;;22.17;15.57;;;;;;;3.41;100.00;93144.53;5071210;28;20071;-72
2024/02/14 08:49:07;;;;;;;14.63;11.82;;;;;;;3.27;100.00;93150.31;5072260;28;20056;-72
2024/02/14 08:51:34;;;;;;;20.63;13.00;;;;;;;3.50;100.00;93154.66;5081404;28;20119;-72
2024/02/14 08:54:04;;;;;;;15.82;12.15;;;;;;;3.48;100.00;93147.22;5071140;28;20515;-72
2024/02/14 08:56:33;;;;;;;15.23;12.80;;;;;;;3.31;100.00;93156.66;5071138;28;20046;-72
2024/02/14 08:59:02;;;;;;;15.82;11.93;;;;;;;3.42;100.00;93161.34;5072013;28;20045;-72
2024/02/14 09:01:29;;;;;;;15.32;11.95;;;;;;;3.51;100.00;93166.41;5071033;28;20080;-72
2024/02/14 09:03:56;;;;;;;15.55;11.75;;;;;;;3.49;100.00;93161.50;5071716;28;20502;-72
2024/02/14 09:06:23;;;;;;;14.27;10.93;;;;;;;3.43;100.00;93159.63;5075371;28;20518;-72
2024/02/14 09:08:51;;;;;;;12.02;10.05;;;;;;;3.23;100.00;93169.41;5072628;28;20148;-72
2024/02/14 09:11:18;;;;;;;12.35;10.30;;;;;;;3.42;100.00;93168.22;5070398;28;20044;-72
2024/02/14 09:13:47;;;;;;;12.48;10.23;;;;;;;3.61;100.00;93172.84;5072037;28;20055;-72
2024/02/14 09:16:16;;;;;;;15.30;10.68;;;;;;;3.41;100.00;93169.94;5068921;28;20059;-72
2024/02/14 09:18:45;;;;;;;17.65;13.10;;;;;;;3.60;100.00;93176.34;5071708;28;20673;-72
2024/02/14 09:21:12;;;;;;;13.95;10.63;;;;;;;3.26;100.00;93177.47;5071621;28;20048;-72
2024/02/14 09:23:40;;;;;;;12.80;10.90;;;;;;;3.22;100.00;93166.06;5070376;28;20048;-72
2024/02/14 09:26:06;;;;;;;13.10;10.15;;;;;;;3.03;100.00;93164.69;5067344;28;20110;-72
2024/02/14 09:28:34;;;;;;;12.00;9.55;;;;;;;3.13;100.00;93172.13;5068364;28;20052;-72
2024/02/14 09:31:04;;;;;;;12.73;9.95;;;;;;;2.92;100.00;93174.25;5069135;28;20044;-72
2024/02/14 09:33:32;;;;;;;15.13;12.27;;;;;;;2.93;100.00;93175.06;5071159;28;20044;-72
2024/02/14 09:35:59;;;;;;;14.77;11.13;;;;;;;2.91;100.00;93180.28;5069269;28;20056;-72
2024/02/14 09:38:26;;;;;;;14.45;11.20;;;;;;;2.98;100.00;93175.34;5072999;28;20036;-71
2024/02/14 09:40:54;;;;;;;15.10;11.93;;;;;;;3.24;100.00;93170.97;5069912;28;20048;-72
2024/02/14 09:43:28;;;;;;;16.80;12.73;;;;;;;3.21;100.00;93174.63;5068446;28;20058;-72
2024/02/14 09:45:55;;;;;;;18.70;13.65;;;;;;;3.29;100.00;93181.44;5081158;28;20059;-72
2024/02/14 09:48:23;;;;;;;13.48;11.48;;;;;;;3.21;100.00;93167.78;5070427;28;20151;-72
2024/02/14 09:50:55;;;;;;;16.67;14.15;;;;;;;3.57;100.00;93170.81;5073014;28;20048;-72
2024/02/14 09:53:24;;;;;;;16.05;11.95;;;;;;;3.30;100.00;93168.56;5068651;28;20601;-72
2024/02/14 09:55:52;;;;;;;20.73;14.50;;;;;;;3.58;100.00;93165.56;5072051;28;20048;-72
2024/02/14 09:58:20;;;;;;;19.73;14.43;;;;;;;3.45;100.00;93170.41;5079339;28;20072;-72
2024/02/14 10:00:47;;;;;;;29.85;19.33;;;;;;;3.59;100.00;93173.97;5070506;28;20044;-72
2024/02/14 10:03:15;;;;;;;15.52;12.60;;;;;;;3.47;100.00;93131.19;5069843;28;20043;-73
2024/02/14 10:05:42;;;;;;;13.13;11.20;;;;;;;3.82;100.00;93156.22;5072290;28;20036;-72
2024/02/14 10:08:12;;;;;;;14.73;11.90;;;;;;;4.00;100.00;93167.84;5067947;28;20040;-72
2024/02/14 10:10:38;;;;;;;12.95;10.55;;;;;;;4.05;100.00;93164.78;5071132;28;20063;-72
2024/02/14 10:13:06;;;;;;;25.13;16.70;;;;;;;3.93;100.00;93154.25;5074122;28;20059;-72
2024/02/14 10:15:33;;;;;;;14.45;9.68;;;;;;;4.04;100.00;93160.66;5070879;28;20119;-72
2024/02/14 10:18:00;;;;;;;14.35;10.55;;;;;;;4.06;100.00;93163.81;5071029;28;20080;-72
2024/02/14 10:20:29;;;;;;;9.10;7.63;;;;;;;3.97;100.00;93168.16;5068922;28;20049;-72
2024/02/14 10:23:03;;;;;;;10.85;7.45;;;;;;;3.98;100.00;93155.31;5071535;28;20507;-72
2024/02/14 10:25:32;;;;;;;10.23;8.23;;;;;;;4.00;100.00;93162.75;5069165;28;20040;-72
2024/02/14 10:28:05;;;;;;;12.38;9.30;;;;;;;4.03;100.00;93166.72;5070055;28;20048;-72
2024/02/14 10:30:32;;;;;;;12.50;10.30;;;;;;;4.36;100.00;93172.31;5069723;28;20048;-72
2024/02/14 10:33:00;;;;;;;10.60;9.07;;;;;;;4.17;100.00;93171.03;5072642;28;20054;-72
2024/02/14 10:35:29;;;;;;;11.88;8.90;;;;;;;4.36;100.00;93162.16;5069724;28;20048;-72
2024/02/14 10:38:00;;;;;;;26.42;16.92;;;;;;;4.60;100.00;93169.75;5069795;28;20072;-72
2024/02/14 10:40:28;;;;;;;15.68;11.25;;;;;;;4.72;100.00;93170.88;5069452;28;20144;-72
2024/02/14 10:42:58;;;;;;;19.23;14.43;;;;;;;4.78;100.00;93164.31;5070333;28;20052;-72
2024/02/14 10:45:26;;;;;;;16.63;10.68;;;;;;;4.81;99.91;93166.50;5075575;28;20050;-72
2024/02/14 10:47:54;;;;;;;13.68;9.57;;;;;;;4.82;100.00;93171.41;5070823;28;20098;-72
2024/02/14 10:50:23;;;;;;;18.77;13.05;;;;;;;4.80;100.00;93175.91;5067643;28;20405;-72
2024/02/14 10:52:50;;;;;;;11.77;9.10;;;;;;;4.76;100.00;93168.78;5075656;28;20372;-72
2024/02/14 10:55:18;;;;;;;15.02;10.05;;;;;;;5.02;99.15;93172.66;5072683;28;20040;-72
2024/02/14 10:57:47;;;;;;;9.75;7.75;;;;;;;4.89;94.44;93170.72;5069843;28;20109;-72
2024/02/14 11:00:18;;;;;;;8.73;6.85;;;;;;;4.95;93.85;93168.28;5070813;28;20051;-72
2024/02/14 11:02:47;;;;;;;15.23;10.85;;;;;;;5.01;94.61;93181.25;5072370;28;20067;-72
2024/02/14 11:05:15;;;;;;;11.43;7.80;;;;;;;4.89;94.27;93186.00;5074372;28;20090;-72
2024/02/14 11:07:46;;;;;;;15.18;9.98;;;;;;;4.76;94.32;93178.97;5073007;28;20044;-72
2024/02/14 11:10:15;;;;;;;11.73;8.35;;;;;;;4.55;95.14;93176.13;5071836;28;20524;-72
2024/02/14 11:12:42;;;;;;;10.82;8.10;;;;;;;4.48;98.06;93174.44;5075067;28;20059;-72
2024/02/14 11:15:17;;;;;;;8.82;6.75;;;;;;;4.20;95.55;93180.88;5071092;28;20082;-72
2024/02/14 11:17:44;;;;;;;10.57;7.30;;;;;;;4.34;95.95;93165.81;5074583;28;20132;-72
2024/02/14 11:20:17;;;;;;;10.77;8.07;;;;;;;4.43;96.92;93174.97;5076358;28;20419;-72
2024/02/14 11:22:54;;;;;;;10.07;7.47;;;;;;;4.49;95.95;93173.50;5073307;28;20041;-72
2024/02/14 11:25:25;;;;;;;11.25;8.43;;;;;;;4.71;93.18;93176.94;5073400;28;20049;-72